Port Allen, Louisiana
Current Conditions -  °F | °C
As of 12:53 PM on Friday 24 Oct 2014 (Local Time) from KBTR Reporting Station
Clear Clear  
Wind Chill: 73°   Ceiling: Unl
Heat Index: 73°   Visibility: 10mi
Dew Point: 46°   Wind: 5mph
Humidity: 38%   Direction: NA
Pressure: 30.1"   Gusts: NA
Location:  30.46°N, 91.21°W
Report Text: KBTR 241753Z VRB04KT 10SM CLR 23/08 A3010 RMK AO2 SLP193 T02280078 10228 20083 58014
Loading
Personal Weather Stations






























Interactive Weather Map
Tropical Storm Tracking
New forecast layout! Learn more

10-Day Weather Forecast

Advertisements
Track Severe Weather on mobile